This is the latest recevied weather packets stored in our database for station/object KD8FRE. If no packets are shown the sender has not sent any weather packets the latest 10 day(s).
| Time | Temp. | Humidity | Pressure | Rain* | Wind** | Luminosity | Snow |
|---|---|---|---|---|---|---|---|
| 1777915028 | 22.22° C | 30% | 1002.8 hPa | 0 mm | - | 565 W/m² | - |
| 1777914726 | 22.22° C | 29% | 1002.8 hPa | 0 mm | - | 675 W/m² | - |
| 1777914422 | 22.22° C | 29% | 1002.9 hPa | 0 mm | - | 539 W/m² | - |
| 1777914120 | 22.22° C | 33% | 1003 hPa | 0 mm | - | 676 W/m² | - |
| 1777913815 | 21.67° C | 31% | 1002.9 hPa | 0 mm | - | 664 W/m² | - |
| 1777913512 | 22.22° C | 33% | 1003.2 hPa | 0 mm | - | 678 W/m² | - |
| 1777913209 | 21.67° C | 34% | 1003.3 hPa | 0 mm | - | 736 W/m² | - |
| 1777912904 | 21.67° C | 34% | 1003.3 hPa | 0 mm | - | 734 W/m² | - |
| 1777912601 | 21.67° C | 34% | 1003.4 hPa | 0 mm | - | 664 W/m² | - |
| 1777912298 | 21.67° C | 35% | 1003.4 hPa | 0 mm | - | 629 W/m² | - |
| 1777911993 | 21.67° C | 36% | 1003.5 hPa | 0 mm | - | 381 W/m² | - |
| 1777911690 | 21.67° C | 36% | 1003.4 hPa | 0 mm | - | 314 W/m² | - |
| 1777911386 | 21.67° C | 37% | 1003.7 hPa | 0 mm | - | 423 W/m² | - |
| 1777911084 | 21.11° C | 38% | 1003.5 hPa | 0 mm | - | 204 W/m² | - |
| 1777910782 | 20.56° C | 41% | 1003.7 hPa | 0 mm | - | 454 W/m² | - |
| 1777910478 | 20.56° C | 41% | 1003.7 hPa | 0 mm | - | 559 W/m² | - |
| 1777910175 | 20.56° C | 39% | 1003.7 hPa | 0 mm | - | 479 W/m² | - |
| 1777909872 | 20.56° C | 41% | 1003.9 hPa | 0 mm | - | 569 W/m² | - |
| 1777909569 | 20° C | 42% | 1004 hPa | 0 mm | - | 452 W/m² | - |
| 1777909265 | 20° C | 42% | 1004.1 hPa | 0 mm | - | 451 W/m² | - |
| 1777908964 | 19.44° C | 44% | 1004 hPa | 0 mm | - | 505 W/m² | - |
| 1777908662 | 19.44° C | 44% | 1004 hPa | 0 mm | - | 511 W/m² | - |
| 1777908358 | 19.44° C | 47% | 1004.2 hPa | 0 mm | - | 469 W/m² | - |
| 1777908055 | 18.89° C | 49% | 1004.1 hPa | 0 mm | - | 245 W/m² | - |
| 1777907750 | 18.33° C | 49% | 1004 hPa | 0 mm | - | 252 W/m² | - |
* Rain latest hour (hover to see other rain measurements)
** Current wind speed in m/s (hover to see current wind gust speed)